Terminal Aerodrome Forecast
Issued by NWS Shreveport, LA

Home | Current Version | Previous Version | Text Only | Print | Product List | Glossary On
Versions: 1 2 3 4 5 6 7 8 9 10 11 12 13 14 15 16 17
439
FTUS44 KSHV 040523
TAFSHV
TAF
KSHV 040523Z 0406/0506 31003KT P6SM SCT120
     FM041000 32003KT P6SM BKN250
     FM041500 29009G18KT P6SM SCT045 SCT150
     FM041800 31017G24KT P6SM SCT045=

USA.gov is the U.S. government's official web portal to all federal, state and local government web resources and services.